METAR Data
IDs: Format: Raw Decoded Include TAF

Data at: 2101 UTC 01 Dec 2021

METAR for:KVTA (Newark/Heath Arpt, OH, US)
Text:KVTA 012054Z AUTO 13005KT 8SM -RA BKN065 OVC080 07/04 A2994 RMK AO2 SLP144 P0001 60006 T00670044 58032 $
Temperature: 6.7°C ( 44°F)
Dewpoint: 4.4°C ( 40°F) [RH = 85%]
Pressure (altimeter):29.94 inches Hg (1014.0 mb) [Sea level pressure: 1014.4 mb]
Winds:from the SE (130 degrees) at 6 MPH (5 knots; 2.6 m/s)
Visibility: 8 sm ( 13 km)
Ceiling:6500 feet AGL
Clouds: broken clouds at 6500 feet AGL, overcast cloud deck at 8000 feet AGL
Weather:-RA (light rain)
QC Flag:automated observation with no human augmentation; SOME DATA ABOVE MAY BE INACCURATE!!!"$" is an indication the sensor requires maintenance.